createdAt,value
2018-03-06T00:00:01.778Z,33.53
2018-03-06T00:02:29.271Z,23.27
2018-03-06T00:04:56.941Z,25.33
2018-03-06T00:07:24.442Z,25.03
2018-03-06T00:09:52.713Z,23.60
2018-03-06T00:12:20.210Z,22.53
2018-03-06T00:14:47.705Z,23.17
2018-03-06T00:17:15.192Z,24.30
2018-03-06T00:19:42.669Z,23.80
2018-03-06T00:22:10.921Z,21.03
2018-03-06T00:24:38.408Z,24.33
2018-03-06T00:27:05.925Z,22.27
2018-03-06T00:29:33.425Z,26.20
2018-03-06T00:32:01.671Z,20.80
2018-03-06T00:34:29.178Z,21.10
2018-03-06T00:36:56.685Z,26.30
2018-03-06T00:39:24.818Z,23.93
2018-03-06T00:41:52.343Z,27.03
2018-03-06T00:44:20.579Z,31.33
2018-03-06T00:46:48.062Z,26.77
2018-03-06T00:49:15.544Z,36.10
2018-03-06T00:51:43.798Z,29.60
2018-03-06T00:54:11.269Z,24.80
2018-03-06T00:56:39.517Z,26.50
2018-03-06T00:59:06.986Z,30.80
2018-03-06T01:01:34.484Z,29.97
2018-03-06T01:04:01.952Z,23.97
2018-03-06T01:06:29.586Z,31.70
2018-03-06T01:08:57.839Z,25.30
2018-03-06T01:11:25.322Z,32.20
2018-03-06T01:13:52.810Z,24.80
2018-03-06T01:16:20.295Z,25.43
2018-03-06T01:18:47.779Z,34.50
2018-03-06T01:21:15.279Z,28.80
2018-03-06T01:23:42.774Z,28.20
2018-03-06T01:26:10.322Z,30.70
2018-03-06T01:28:37.843Z,35.23
2018-03-06T01:31:05.330Z,26.63
2018-03-06T01:33:32.822Z,24.87
2018-03-06T01:36:00.311Z,32.03
2018-03-06T01:38:28.557Z,39.53
2018-03-06T01:40:56.059Z,29.30
2018-03-06T01:43:24.314Z,31.90
2018-03-06T01:45:51.802Z,27.87
2018-03-06T01:48:19.300Z,32.33
2018-03-06T01:50:46.902Z,36.10
2018-03-06T01:53:15.185Z,30.47
2018-03-06T01:55:43.429Z,36.50
2018-03-06T01:58:10.932Z,37.20
2018-03-06T02:00:38.436Z,30.97
2018-03-06T02:03:06.693Z,38.57
2018-03-06T02:05:34.182Z,35.33
2018-03-06T02:08:01.709Z,34.33
2018-03-06T02:10:29.390Z,31.90
2018-03-06T02:12:56.901Z,37.03
2018-03-06T02:15:25.162Z,101.03
2018-03-06T02:17:52.670Z,71.50
2018-03-06T02:20:20.156Z,55.33
2018-03-06T02:22:47.649Z,44.90
2018-03-06T02:25:15.907Z,42.20
2018-03-06T02:27:43.404Z,43.83
2018-03-06T02:30:11.077Z,37.63
2018-03-06T02:32:39.411Z,36.43
2018-03-06T02:35:06.927Z,33.10
2018-03-06T02:37:34.415Z,36.57
2018-03-06T02:40:01.916Z,36.73
2018-03-06T02:42:29.419Z,33.47
2018-03-06T02:44:56.902Z,33.63
2018-03-06T02:47:24.395Z,42.13
2018-03-06T02:49:51.870Z,51.93
2018-03-06T02:52:19.398Z,30.50
2018-03-06T02:54:47.637Z,43.80
2018-03-06T02:57:15.129Z,38.93
2018-03-06T02:59:43.377Z,34.53
2018-03-06T03:02:10.865Z,38.83
2018-03-06T03:04:39.109Z,48.20
2018-03-06T03:07:06.601Z,39.33
2018-03-06T03:09:34.875Z,43.23
2018-03-06T03:12:03.117Z,40.37
2018-03-06T03:14:30.678Z,44.90
2018-03-06T03:16:58.195Z,45.23
2018-03-06T03:19:25.703Z,45.53
2018-03-06T03:21:53.170Z,45.87
2018-03-06T03:24:20.717Z,38.47
2018-03-06T03:26:48.198Z,37.97
2018-03-06T03:29:15.701Z,44.33
2018-03-06T03:31:43.292Z,36.47
2018-03-06T03:34:10.784Z,45.43
2018-03-06T03:36:39.089Z,33.23
2018-03-06T03:39:06.666Z,36.43
2018-03-06T03:41:34.144Z,38.07
2018-03-06T03:44:01.647Z,38.77
2018-03-06T03:46:29.949Z,36.93
2018-03-06T03:48:58.124Z,39.90
2018-03-06T03:51:25.612Z,41.83
2018-03-06T03:53:53.232Z,43.87
2018-03-06T03:56:20.833Z,42.67
2018-03-06T03:58:48.365Z,40.00
2018-03-06T04:01:15.865Z,45.73
2018-03-06T04:03:43.350Z,39.23
2018-03-06T04:06:10.842Z,49.67
2018-03-06T04:08:38.341Z,46.47
2018-03-06T04:11:06.406Z,50.63
2018-03-06T04:13:33.930Z,43.83
2018-03-06T04:16:01.516Z,41.83
2018-03-06T04:18:29.002Z,52.33
2018-03-06T04:20:57.285Z,52.97
2018-03-06T04:23:24.826Z,50.00
2018-03-06T04:25:52.305Z,48.47
2018-03-06T04:28:19.796Z,47.53
2018-03-06T04:30:48.056Z,49.93
2018-03-06T04:33:15.558Z,50.07
2018-03-06T04:35:43.056Z,47.57
2018-03-06T04:38:10.549Z,51.63
2018-03-06T04:40:38.790Z,42.10
2018-03-06T04:43:06.266Z,47.40
2018-03-06T04:45:33.761Z,49.33
2018-03-06T04:48:01.258Z,49.10
2018-03-06T04:50:28.757Z,54.73
2018-03-06T04:52:57.004Z,53.10
2018-03-06T04:55:24.811Z,47.70
2018-03-06T04:57:53.067Z,54.90
2018-03-06T05:00:20.552Z,59.37
2018-03-06T05:02:48.054Z,61.67
2018-03-06T05:05:15.566Z,54.30
2018-03-06T05:07:43.069Z,49.40
2018-03-06T05:10:10.552Z,48.87
2018-03-06T05:12:38.050Z,53.00
2018-03-06T05:15:05.535Z,53.07
2018-03-06T05:17:33.268Z,57.70
2018-03-06T05:20:00.792Z,59.27
2018-03-06T05:22:28.277Z,89.50
2018-03-06T05:24:56.524Z,76.50
2018-03-06T05:27:24.020Z,76.63
2018-03-06T05:29:51.500Z,67.93
2018-03-06T05:32:18.986Z,67.13
2018-03-06T05:34:46.501Z,58.93
2018-03-06T05:37:14.066Z,51.70
2018-03-06T05:39:41.550Z,65.17
2018-03-06T05:42:09.056Z,52.37
2018-03-06T05:44:36.541Z,59.03
2018-03-06T05:47:04.029Z,51.57
2018-03-06T05:49:31.526Z,60.27
2018-03-06T05:51:59.024Z,56.83
2018-03-06T05:54:26.526Z,57.70
2018-03-06T05:56:54.468Z,61.20
2018-03-06T05:59:21.967Z,52.33
2018-03-06T06:01:49.446Z,63.30
2018-03-06T06:04:17.708Z,55.77
2018-03-06T06:06:45.985Z,59.53
2018-03-06T06:09:13.505Z,55.70
2018-03-06T06:11:41.001Z,63.00
2018-03-06T06:14:09.319Z,79.47
2018-03-06T06:16:37.318Z,81.03
2018-03-06T06:19:04.806Z,88.53
2018-03-06T06:21:32.288Z,95.27
2018-03-06T06:24:00.536Z,96.70
2018-03-06T06:26:28.067Z,90.40
2018-03-06T06:28:55.551Z,97.57
2018-03-06T06:31:23.043Z,90.00
2018-03-06T06:33:51.286Z,78.83
2018-03-06T06:36:18.787Z,96.37
2018-03-06T06:38:47.042Z,90.03
2018-03-06T06:41:15.485Z,93.73
2018-03-06T06:43:43.753Z,77.97
2018-03-06T06:46:11.259Z,82.57
2018-03-06T06:48:38.757Z,76.30
2018-03-06T06:51:06.682Z,71.77
2018-03-06T06:53:34.396Z,65.70
2018-03-06T06:56:01.891Z,73.87
2018-03-06T06:58:29.362Z,83.93
2018-03-06T07:00:56.862Z,58.53
2018-03-06T07:03:24.358Z,70.07
2018-03-06T07:05:51.848Z,58.50
2018-03-06T07:08:20.118Z,61.03
2018-03-06T07:10:47.612Z,66.90
2018-03-06T07:13:15.120Z,55.73
2018-03-06T07:15:42.638Z,59.97
2018-03-06T07:18:10.127Z,56.50
2018-03-06T07:20:37.816Z,50.33
2018-03-06T07:23:05.517Z,61.63
2018-03-06T07:25:33.060Z,41.50
2018-03-06T07:28:01.306Z,44.53
2018-03-06T07:30:28.798Z,49.10
2018-03-06T07:32:57.047Z,40.53
2018-03-06T07:35:24.518Z,43.50
2018-03-06T07:37:51.994Z,42.63
2018-03-06T07:40:20.273Z,41.03
2018-03-06T07:42:48.634Z,41.67
2018-03-06T07:45:16.881Z,50.73
2018-03-06T07:47:44.388Z,42.60
2018-03-06T07:50:12.637Z,36.77
2018-03-06T07:52:40.137Z,50.67
2018-03-06T07:55:07.622Z,40.07
2018-03-06T07:57:35.094Z,45.00
2018-03-06T08:00:03.391Z,39.13
2018-03-06T08:02:30.893Z,41.13
2018-03-06T08:04:58.376Z,45.13
2018-03-06T08:07:25.869Z,39.20
2018-03-06T08:09:53.339Z,35.50
2018-03-06T08:12:20.809Z,34.50
2018-03-06T08:14:49.083Z,49.90
2018-03-06T08:17:17.338Z,39.60
2018-03-06T08:19:44.818Z,42.67
2018-03-06T08:22:13.076Z,45.37
2018-03-06T08:24:40.553Z,37.83
2018-03-06T08:27:08.844Z,40.40
2018-03-06T08:29:37.185Z,38.00
2018-03-06T08:32:04.723Z,31.27
2018-03-06T08:34:32.203Z,40.03
2018-03-06T08:36:59.706Z,41.33
2018-03-06T08:39:27.203Z,42.63
2018-03-06T08:41:54.682Z,43.83
2018-03-06T08:44:22.161Z,49.50
2018-03-06T08:46:50.407Z,37.87
2018-03-06T08:49:17.976Z,37.80
2018-03-06T08:51:45.456Z,41.90
2018-03-06T08:54:13.113Z,53.80
2018-03-06T08:56:40.611Z,61.07
2018-03-06T08:59:08.155Z,43.20
2018-03-06T09:01:36.418Z,50.23
2018-03-06T09:04:04.679Z,32.63
2018-03-06T09:06:32.238Z,45.07
2018-03-06T09:09:01.591Z,39.63
2018-03-06T09:11:29.359Z,33.80
2018-03-06T09:13:57.137Z,46.40
2018-03-06T09:16:24.673Z,32.97
2018-03-06T09:18:52.207Z,30.67
2018-03-06T09:21:19.730Z,35.43
2018-03-06T09:23:47.240Z,39.23
2018-03-06T09:26:15.497Z,32.60
2018-03-06T09:28:44.811Z,30.47
2018-03-06T09:31:15.144Z,34.57
2018-03-06T09:33:52.945Z,31.90
2018-03-06T09:36:23.187Z,45.43
2018-03-06T09:38:57.054Z,41.80
2018-03-06T09:41:24.898Z,31.50
2018-03-06T09:43:55.053Z,30.47
2018-03-06T09:46:24.655Z,34.23
2018-03-06T09:48:52.125Z,33.13
2018-03-06T09:51:20.402Z,23.90
2018-03-06T09:53:48.642Z,24.20
2018-03-06T09:56:16.199Z,32.57
2018-03-06T09:58:43.721Z,31.63
2018-03-06T10:01:15.571Z,21.53
2018-03-06T10:03:43.829Z,22.00
2018-03-06T10:06:11.314Z,16.13
2018-03-06T10:08:38.803Z,25.23
2018-03-06T10:11:06.712Z,14.67
2018-03-06T10:13:34.187Z,10.53
2018-03-06T10:16:01.778Z,13.47
2018-03-06T10:18:29.299Z,11.03
2018-03-06T10:20:56.774Z,12.27
2018-03-06T10:23:24.268Z,10.07
2018-03-06T10:25:51.814Z,11.87
2018-03-06T10:28:19.333Z,12.93
2018-03-06T10:30:46.807Z,11.63
2018-03-06T10:33:15.130Z,12.07
2018-03-06T10:35:43.500Z,12.17
2018-03-06T10:38:11.043Z,16.43
2018-03-06T10:40:38.522Z,14.10
2018-03-06T10:43:06.008Z,13.57
2018-03-06T10:45:33.503Z,12.93
2018-03-06T10:48:01.005Z,16.60
2018-03-06T10:50:28.520Z,16.47
2018-03-06T10:52:56.792Z,15.90
2018-03-06T10:55:25.351Z,20.40
2018-03-06T10:57:52.843Z,17.10
2018-03-06T11:00:26.722Z,21.83
2018-03-06T11:02:54.209Z,26.73
2018-03-06T11:05:22.524Z,15.83
2018-03-06T11:07:50.060Z,18.10
2018-03-06T11:10:17.607Z,15.97
2018-03-06T11:12:45.137Z,22.13
2018-03-06T11:15:12.634Z,13.30
2018-03-06T11:17:40.183Z,18.20
2018-03-06T11:20:08.498Z,25.30
2018-03-06T11:22:36.088Z,17.30
2018-03-06T11:25:03.630Z,17.20
2018-03-06T11:27:31.281Z,14.97
2018-03-06T11:29:58.770Z,15.20
2018-03-06T11:32:26.271Z,16.00
2018-03-06T11:34:53.758Z,25.13
2018-03-06T11:37:21.324Z,29.03
2018-03-06T11:39:48.831Z,18.27
2018-03-06T11:42:16.346Z,15.33
2018-03-06T11:44:43.827Z,18.90
2018-03-06T11:47:11.487Z,20.60
2018-03-06T11:49:38.964Z,16.93
2018-03-06T11:52:06.450Z,21.43
2018-03-06T11:54:33.933Z,16.47
2018-03-06T11:57:01.429Z,19.67
2018-03-06T11:59:28.903Z,19.83
2018-03-06T12:01:57.234Z,15.67
2018-03-06T12:04:24.688Z,19.93
2018-03-06T12:06:52.228Z,18.97
2018-03-06T12:09:19.802Z,19.23
2018-03-06T12:11:47.347Z,21.53
2018-03-06T12:14:14.807Z,20.10
2018-03-06T12:16:42.314Z,29.13
2018-03-06T12:19:09.809Z,25.37
2018-03-06T12:21:38.046Z,21.93
2018-03-06T12:24:05.563Z,18.70
2018-03-06T12:26:33.125Z,16.60
2018-03-06T12:29:00.643Z,18.13
2018-03-06T12:31:28.171Z,22.90
2018-03-06T12:33:55.686Z,24.33
2018-03-06T12:36:23.957Z,21.93
2018-03-06T12:38:52.226Z,19.07
2018-03-06T12:41:19.857Z,16.63
2018-03-06T12:43:47.356Z,21.50
2018-03-06T12:46:15.628Z,21.73
2018-03-06T12:48:43.129Z,18.03
2018-03-06T12:51:10.623Z,21.13
2018-03-06T12:53:38.107Z,18.10
2018-03-06T12:56:06.442Z,20.67
2018-03-06T12:58:33.929Z,18.37
2018-03-06T13:01:01.429Z,19.80
2018-03-06T13:03:29.032Z,19.40
2018-03-06T13:05:56.553Z,20.43
2018-03-06T13:08:24.019Z,18.50
2018-03-06T13:10:51.522Z,21.20
2018-03-06T13:13:19.015Z,22.23
2018-03-06T13:15:47.280Z,27.03
2018-03-06T13:18:15.620Z,22.73
2018-03-06T13:20:43.128Z,20.40
2018-03-06T13:23:11.389Z,21.20
2018-03-06T13:25:39.699Z,13.37
2018-03-06T13:28:07.188Z,15.20
2018-03-06T13:30:34.707Z,16.40
2018-03-06T13:33:02.190Z,14.50
2018-03-06T13:35:29.690Z,16.00
2018-03-06T13:37:57.224Z,11.23
2018-03-06T13:40:24.694Z,12.07
2018-03-06T13:42:52.192Z,14.53
2018-03-06T13:45:20.437Z,10.90
2018-03-06T13:47:47.926Z,10.90
2018-03-06T13:50:16.178Z,13.13
2018-03-06T13:52:43.682Z,23.57
2018-03-06T13:55:11.152Z,12.40
2018-03-06T13:57:38.652Z,16.43
2018-03-06T14:00:06.294Z,17.47
2018-03-06T14:02:33.794Z,20.73
2018-03-06T14:05:01.371Z,19.03
2018-03-06T14:07:28.870Z,25.87
2018-03-06T14:09:56.372Z,17.53
2018-03-06T14:12:24.642Z,18.03
2018-03-06T14:14:52.897Z,16.10
2018-03-06T14:17:20.433Z,21.00
2018-03-06T14:19:47.940Z,20.93
2018-03-06T14:22:15.449Z,23.40
2018-03-06T14:24:42.977Z,20.93
2018-03-06T14:27:11.247Z,19.17
2018-03-06T14:29:39.507Z,17.03
2018-03-06T14:32:07.750Z,17.10
2018-03-06T14:34:35.307Z,18.63
2018-03-06T14:37:02.855Z,16.07
2018-03-06T14:39:30.355Z,25.40
2018-03-06T14:41:57.853Z,28.10
2018-03-06T14:44:26.219Z,20.83
2018-03-06T14:46:54.467Z,21.93
2018-03-06T14:49:22.042Z,19.43
2018-03-06T14:51:49.531Z,21.27
2018-03-06T14:54:17.073Z,21.70
2018-03-06T14:56:45.317Z,20.00
2018-03-06T14:59:12.796Z,28.50
2018-03-06T15:01:40.311Z,17.87
2018-03-06T15:04:07.804Z,17.80
2018-03-06T15:06:35.339Z,19.73
2018-03-06T15:09:02.862Z,15.33
2018-03-06T15:11:31.281Z,17.70
2018-03-06T15:13:58.806Z,24.33
2018-03-06T15:16:26.312Z,14.83
2018-03-06T15:18:53.801Z,23.83
2018-03-06T15:21:21.333Z,17.17
2018-03-06T15:23:48.831Z,18.30
2018-03-06T15:26:17.466Z,17.30
2018-03-06T15:28:44.983Z,19.23
2018-03-06T15:31:13.226Z,25.23
2018-03-06T15:33:40.719Z,22.30
2018-03-06T15:36:08.992Z,22.83
2018-03-06T15:38:37.261Z,22.47
2018-03-06T15:41:05.903Z,22.23
2018-03-06T15:43:33.379Z,20.53
2018-03-06T15:46:00.867Z,22.97
2018-03-06T15:48:29.107Z,16.70
2018-03-06T15:50:56.643Z,25.20
2018-03-06T15:53:24.130Z,21.30
2018-03-06T15:55:51.603Z,19.97
2018-03-06T15:58:19.225Z,23.20
2018-03-06T16:00:46.699Z,16.83
2018-03-06T16:03:14.202Z,22.70
2018-03-06T16:05:42.876Z,18.43
2018-03-06T16:08:10.415Z,21.30
2018-03-06T16:10:37.882Z,27.30
2018-03-06T16:13:05.460Z,20.60
2018-03-06T16:15:32.997Z,20.60
2018-03-06T16:18:01.293Z,20.67
2018-03-06T16:20:28.802Z,21.40
2018-03-06T16:22:56.361Z,21.60
2018-03-06T16:25:23.859Z,16.80
2018-03-06T16:27:51.355Z,30.87
2018-03-06T16:30:18.830Z,17.27
2018-03-06T16:32:46.346Z,23.00
2018-03-06T16:35:13.838Z,19.07
2018-03-06T16:37:41.316Z,21.60
2018-03-06T16:40:08.813Z,20.93
2018-03-06T16:42:36.332Z,20.70
2018-03-06T16:45:03.828Z,20.77
2018-03-06T16:47:32.071Z,28.10
2018-03-06T16:49:59.587Z,16.23
2018-03-06T16:52:27.265Z,22.90
2018-03-06T16:54:54.788Z,23.70
2018-03-06T16:57:22.346Z,23.17
2018-03-06T16:59:49.830Z,18.80
2018-03-06T17:02:18.107Z,23.27
2018-03-06T17:04:46.553Z,23.80
2018-03-06T17:07:14.051Z,21.53
2018-03-06T17:09:41.570Z,18.40
2018-03-06T17:12:09.124Z,22.87
2018-03-06T17:14:36.609Z,24.70
2018-03-06T17:17:05.592Z,40.57
2018-03-06T17:19:33.067Z,53.10
2018-03-06T17:22:00.580Z,25.00
2018-03-06T17:24:28.081Z,26.90
2018-03-06T17:26:55.614Z,34.03
2018-03-06T17:29:23.111Z,19.03
2018-03-06T17:31:50.712Z,19.17
2018-03-06T17:34:19.261Z,22.33
2018-03-06T17:36:46.778Z,22.00
2018-03-06T17:39:14.309Z,18.53
2018-03-06T17:41:41.797Z,20.57
2018-03-06T17:44:09.283Z,22.80
2018-03-06T17:46:36.750Z,22.47
2018-03-06T17:49:04.247Z,20.70
2018-03-06T17:51:31.761Z,23.53
2018-03-06T17:53:59.300Z,21.37
2018-03-06T17:56:26.834Z,29.80
2018-03-06T17:58:54.352Z,22.00
2018-03-06T18:01:21.856Z,22.40
2018-03-06T18:03:49.348Z,23.00
2018-03-06T18:06:16.842Z,25.03
2018-03-06T18:08:45.121Z,30.50
2018-03-06T18:11:13.365Z,23.67
2018-03-06T18:13:40.855Z,29.67
2018-03-06T18:16:09.150Z,26.33
2018-03-06T18:18:36.799Z,26.47
2018-03-06T18:21:04.508Z,24.03
2018-03-06T18:23:31.989Z,24.33
2018-03-06T18:25:59.550Z,28.47
2018-03-06T18:28:28.035Z,27.10
2018-03-06T18:30:55.596Z,32.77
2018-03-06T18:33:23.229Z,30.93
2018-03-06T18:35:51.802Z,41.07
2018-03-06T18:38:19.319Z,31.03
2018-03-06T18:40:46.829Z,47.77
2018-03-06T18:43:14.325Z,29.77
2018-03-06T18:45:41.840Z,36.57
2018-03-06T18:48:09.367Z,31.90
2018-03-06T18:50:49.491Z,32.50
2018-03-06T18:53:18.097Z,31.97
2018-03-06T18:55:46.359Z,32.90
2018-03-06T18:58:13.885Z,37.43
2018-03-06T19:01:02.064Z,43.30
2018-03-06T19:03:41.365Z,29.60
2018-03-06T19:06:20.799Z,25.10
2018-03-06T19:08:48.299Z,30.93
2018-03-06T19:11:16.645Z,28.40
2018-03-06T19:13:44.147Z,26.50
2018-03-06T19:16:12.430Z,28.60
2018-03-06T19:18:39.974Z,26.50
2018-03-06T19:21:07.448Z,35.60
2018-03-06T19:23:35.540Z,40.27
2018-03-06T19:26:03.089Z,32.20
2018-03-06T19:28:31.431Z,22.97
2018-03-06T19:30:58.988Z,28.07
2018-03-06T19:33:26.554Z,32.30
2018-03-06T19:35:55.339Z,24.37
2018-03-06T19:38:22.896Z,22.07
2018-03-06T19:40:50.706Z,26.97
2018-03-06T19:43:18.215Z,25.20
2018-03-06T19:45:46.072Z,23.67
2018-03-06T19:48:14.294Z,19.17
2018-03-06T19:50:42.403Z,17.23
2018-03-06T19:53:10.189Z,24.47
2018-03-06T19:55:37.736Z,21.10
2018-03-06T19:58:05.268Z,16.80
2018-03-06T20:00:33.392Z,23.97
2018-03-06T20:03:02.054Z,15.90
2018-03-06T20:05:30.628Z,25.43
2018-03-06T20:07:59.215Z,23.83
2018-03-06T20:10:27.270Z,23.17
2018-03-06T20:12:55.802Z,21.40
2018-03-06T20:15:23.569Z,20.87
2018-03-06T20:17:51.116Z,22.27
2018-03-06T20:20:19.222Z,16.73
2018-03-06T20:22:47.977Z,17.27
2018-03-06T20:25:21.710Z,20.83
2018-03-06T20:27:50.035Z,16.73
2018-03-06T20:30:23.393Z,19.80
2018-03-06T20:32:56.617Z,24.60
2018-03-06T20:35:24.462Z,32.93
2018-03-06T20:37:52.058Z,23.03
2018-03-06T20:40:25.969Z,17.60
2018-03-06T20:42:53.523Z,20.57
2018-03-06T20:45:21.002Z,19.30
2018-03-06T20:47:48.788Z,18.00
2018-03-06T20:50:16.397Z,25.53
2018-03-06T20:52:49.565Z,19.23
2018-03-06T20:55:17.051Z,20.30
2018-03-06T20:57:45.306Z,21.43
2018-03-06T21:00:12.845Z,21.73
2018-03-06T21:02:40.318Z,23.13
2018-03-06T21:05:08.210Z,16.67
2018-03-06T21:07:35.741Z,20.53
2018-03-06T21:10:03.308Z,19.53
2018-03-06T21:12:31.021Z,15.10
2018-03-06T21:14:58.520Z,25.03
2018-03-06T21:17:25.999Z,20.77
2018-03-06T21:19:54.388Z,12.93
2018-03-06T21:22:21.947Z,14.63
2018-03-06T21:24:49.686Z,20.43
2018-03-06T21:27:17.186Z,18.70
2018-03-06T21:29:44.687Z,13.50
2018-03-06T21:32:12.180Z,19.03
2018-03-06T21:34:39.664Z,16.23
2018-03-06T21:37:07.165Z,17.53
2018-03-06T21:39:34.656Z,16.73
2018-03-06T21:42:02.223Z,17.63
2018-03-06T21:44:30.565Z,16.03
2018-03-06T21:46:58.069Z,21.40
2018-03-06T21:49:26.345Z,21.80
2018-03-06T21:51:54.622Z,23.63
2018-03-06T21:54:22.886Z,17.57
2018-03-06T21:56:51.261Z,26.37
2018-03-06T21:59:18.781Z,17.40
2018-03-06T22:01:46.997Z,21.60
2018-03-06T22:04:14.474Z,19.07
2018-03-06T22:06:43.221Z,18.23
2018-03-06T22:09:10.707Z,22.60
2018-03-06T22:11:38.187Z,16.97
2018-03-06T22:14:05.673Z,16.33
2018-03-06T22:16:33.183Z,15.73
2018-03-06T22:19:00.696Z,17.97
2018-03-06T22:21:28.181Z,17.33
2018-03-06T22:23:55.678Z,17.20
2018-03-06T22:26:24.189Z,17.60
2018-03-06T22:28:51.675Z,22.53
2018-03-06T22:31:19.151Z,16.33
2018-03-06T22:33:46.643Z,18.73
2018-03-06T22:36:14.124Z,19.53
2018-03-06T22:38:43.250Z,25.30
2018-03-06T22:41:11.153Z,15.77
2018-03-06T22:43:39.399Z,17.43
2018-03-06T22:46:10.822Z,18.90
2018-03-06T22:48:38.341Z,17.90
2018-03-06T22:51:07.751Z,13.63
2018-03-06T22:53:36.143Z,15.70
2018-03-06T22:56:03.635Z,13.90
2018-03-06T22:58:31.126Z,21.43
2018-03-06T23:00:58.644Z,16.67
2018-03-06T23:03:26.114Z,21.23
2018-03-06T23:05:53.605Z,22.13
2018-03-06T23:08:21.087Z,26.60
2018-03-06T23:10:49.344Z,17.60
2018-03-06T23:13:16.815Z,15.60
2018-03-06T23:15:45.134Z,14.87
2018-03-06T23:18:12.602Z,15.60
2018-03-06T23:20:40.090Z,25.07
2018-03-06T23:23:07.566Z,25.27
2018-03-06T23:25:35.820Z,21.33
2018-03-06T23:28:03.307Z,25.53
2018-03-06T23:30:31.558Z,25.93
2018-03-06T23:32:59.117Z,23.53
2018-03-06T23:35:26.603Z,21.00
2018-03-06T23:37:54.843Z,18.73
2018-03-06T23:40:22.338Z,21.53
2018-03-06T23:42:50.598Z,17.50
2018-03-06T23:45:18.115Z,16.70
2018-03-06T23:47:45.605Z,15.63
2018-03-06T23:50:13.079Z,20.63
2018-03-06T23:52:40.607Z,17.17
2018-03-06T23:55:08.236Z,17.60
2018-03-06T23:57:35.756Z,18.97
